Time;durP1;ratioP1;P1;durP2;ratioP2;P2;SDS_P1;SDS_P2;PMS_P1;PMS_P2;Temp;Humidity;BMP_temperature;BMP_pressure;BME280_temperature;BME280_humidity;BME280_pressure;Samples;Min_cycle;Max_cycle;Signal;HPM_P1;HPM_P2
2021/03/30 00:00:55;;;;;;;3.23;2.93;;;11.60;99.90;;;;;;5031163;28;20431;-85
2021/03/30 00:03:21;;;;;;;2.97;2.77;;;11.30;99.90;;;;;;5030944;28;20583;-85
2021/03/30 00:05:46;;;;;;;3.30;2.73;;;11.00;99.90;;;;;;5031590;28;20207;-86
2021/03/30 00:08:14;;;;;;;4.40;2.83;;;11.00;99.90;;;;;;5031253;28;20180;-85
2021/03/30 00:10:41;;;;;;;3.27;2.97;;;11.10;99.90;;;;;;5031298;28;20664;-85
2021/03/30 00:13:07;;;;;;;4.07;3.30;;;11.10;99.90;;;;;;5032510;28;20760;-85
2021/03/30 00:15:33;;;;;;;3.10;2.90;;;11.10;99.90;;;;;;5030630;28;20455;-85
2021/03/30 00:17:58;;;;;;;2.60;2.40;;;11.20;99.90;;;;;;5030866;28;20219;-85
2021/03/30 00:20:25;;;;;;;5.60;3.10;;;11.30;99.90;;;;;;5032059;28;20263;-86
2021/03/30 00:22:50;;;;;;;3.57;2.50;;;11.40;99.90;;;;;;5032623;28;20196;-86
2021/03/30 00:25:16;;;;;;;9.53;2.87;;;11.30;99.90;;;;;;5031236;28;20447;-85
2021/03/30 00:27:42;;;;;;;3.20;2.40;;;11.30;99.90;;;;;;5030846;28;20180;-86
2021/03/30 00:30:10;;;;;;;4.17;2.60;;;11.20;99.90;;;;;;5031172;28;20302;-85
2021/03/30 00:32:36;;;;;;;2.43;2.33;;;11.00;99.90;;;;;;5031329;28;20206;-86
2021/03/30 00:35:02;;;;;;;4.17;2.93;;;11.00;99.90;;;;;;5031227;28;20445;-86
2021/03/30 00:37:28;;;;;;;4.33;2.70;;;11.00;99.90;;;;;;5031295;28;20478;-86
2021/03/30 00:39:53;;;;;;;4.53;3.10;;;11.10;99.90;;;;;;5031120;28;20935;-87
2021/03/30 00:42:21;;;;;;;2.97;2.67;;;11.10;99.90;;;;;;5030524;28;20354;-85
2021/03/30 00:44:48;;;;;;;3.00;2.80;;;11.10;99.90;;;;;;5030981;28;20222;-86
2021/03/30 00:47:20;;;;;;;2.70;2.50;;;11.00;99.90;;;;;;5031142;28;20423;-84
2021/03/30 00:49:49;;;;;;;4.30;2.63;;;11.10;99.90;;;;;;5031010;28;20423;-85
2021/03/30 00:52:16;;;;;;;2.70;2.50;;;11.30;99.90;;;;;;5032397;28;20456;-85
2021/03/30 00:54:42;;;;;;;2.63;2.10;;;11.40;99.90;;;;;;5030567;28;20931;-85
2021/03/30 00:57:08;;;;;;;1.83;1.73;;;11.40;99.90;;;;;;5032034;28;20549;-85
2021/03/30 00:59:34;;;;;;;2.57;2.37;;;11.30;99.90;;;;;;5030782;28;20970;-85
2021/03/30 01:02:00;;;;;;;4.00;2.27;;;11.10;99.90;;;;;;5031808;28;20462;-85
2021/03/30 01:04:26;;;;;;;2.30;2.10;;;10.80;99.90;;;;;;5030896;28;20215;-85
2021/03/30 01:06:52;;;;;;;3.80;2.37;;;10.60;99.90;;;;;;5030735;28;20451;-84
2021/03/30 01:09:35;;;;;;;3.00;2.10;;;10.50;99.90;;;;;;5031761;28;20228;-86
2021/03/30 01:12:19;;;;;;;5.00;2.20;;;10.50;99.90;;;;;;5032207;28;20165;-85
2021/03/30 01:14:47;;;;;;;4.03;3.07;;;10.40;99.90;;;;;;5030856;28;20776;-86
2021/03/30 01:17:25;;;;;;;4.43;3.30;;;10.20;99.90;;;;;;5047337;28;20574;-85
2021/03/30 01:20:40;;;;;;;2.73;2.53;;;10.20;99.90;;;;;;5031944;28;20450;-85
2021/03/30 01:23:20;;;;;;;2.60;2.40;;;10.30;99.90;;;;;;5030521;28;20431;-84
2021/03/30 01:26:00;;;;;;;3.53;2.53;;;10.40;99.90;;;;;;5047284;28;20480;-85
2021/03/30 01:28:41;;;;;;;2.40;2.27;;;10.60;99.90;;;;;;5030375;28;20418;-85
2021/03/30 01:31:07;;;;;;;2.10;2.00;;;10.80;99.90;;;;;;5032275;28;20407;-85
2021/03/30 01:33:35;;;;;;;2.30;2.20;;;10.90;99.90;;;;;;5035008;28;20903;-85
2021/03/30 01:36:01;;;;;;;2.50;2.30;;;10.90;99.90;;;;;;5035438;28;20469;-85
2021/03/30 01:38:27;;;;;;;3.20;3.00;;;10.90;99.90;;;;;;5034175;28;20424;-85
2021/03/30 01:40:55;;;;;;;3.50;3.10;;;10.90;99.90;;;;;;5035249;28;20419;-85
2021/03/30 01:43:23;;;;;;;3.37;2.63;;;10.80;99.90;;;;;;5034116;28;20176;-84
2021/03/30 01:45:56;;;;;;;2.07;1.97;;;10.70;99.90;;;;;;5033898;28;20518;-85
2021/03/30 01:48:23;;;;;;;2.20;2.10;;;10.60;99.90;;;;;;5034910;28;20419;-86
2021/03/30 01:50:52;;;;;;;3.80;2.60;;;10.40;99.90;;;;;;5033781;28;20428;-84
2021/03/30 01:53:19;;;;;;;2.40;2.30;;;10.30;99.90;;;;;;5033320;28;20423;-84
2021/03/30 01:55:48;;;;;;;3.27;2.73;;;10.30;99.90;;;;;;5033582;28;20498;-84
2021/03/30 01:58:20;;;;;;;3.33;2.57;;;10.20;99.90;;;;;;5035079;28;20420;-85
2021/03/30 02:00:46;;;;;;;2.73;2.43;;;10.20;99.90;;;;;;5033557;28;20420;-84
2021/03/30 02:03:12;;;;;;;2.73;2.20;;;10.10;99.90;;;;;;5034690;28;20431;-84
2021/03/30 02:05:38;;;;;;;3.40;2.50;;;9.80;99.90;;;;;;5034812;28;20895;-85
2021/03/30 02:08:07;;;;;;;2.97;2.67;;;9.80;99.90;;;;;;5033623;28;20561;-85
2021/03/30 02:10:42;;;;;;;6.00;3.07;;;9.70;99.90;;;;;;5034579;28;20467;-84
2021/03/30 02:13:11;;;;;;;2.83;2.63;;;9.70;99.90;;;;;;5032994;28;20427;-85
2021/03/30 02:15:37;;;;;;;3.63;3.17;;;9.50;99.90;;;;;;5034525;28;20648;-84
2021/03/30 02:18:14;;;;;;;3.90;3.13;;;9.40;99.90;;;;;;5033301;28;20518;-84
2021/03/30 02:20:46;;;;;;;2.77;2.50;;;9.30;99.90;;;;;;5034635;28;20173;-85
2021/03/30 02:23:24;;;;;;;3.90;2.90;;;9.40;99.90;;;;;;5034518;28;20501;-84
2021/03/30 02:25:54;;;;;;;3.07;2.77;;;9.50;99.90;;;;;;5033921;28;20783;-84
2021/03/30 02:28:24;;;;;;;2.97;2.40;;;9.60;99.90;;;;;;5033113;28;20423;-85
2021/03/30 02:30:50;;;;;;;3.27;2.00;;;9.70;99.90;;;;;;5033070;28;20423;-84
2021/03/30 02:33:21;;;;;;;4.47;2.60;;;9.90;99.90;;;;;;5032843;28;20469;-86
2021/03/30 02:35:53;;;;;;;3.03;2.80;;;9.90;99.90;;;;;;5033062;28;20475;-85
2021/03/30 02:38:20;;;;;;;3.50;2.23;;;9.70;99.90;;;;;;5034238;28;20408;-84
2021/03/30 02:40:47;;;;;;;3.03;2.50;;;9.50;99.90;;;;;;5032723;28;20512;-85
2021/03/30 02:43:14;;;;;;;3.20;2.50;;;9.50;99.90;;;;;;5032783;28;20474;-85
2021/03/30 02:45:42;;;;;;;4.00;2.60;;;9.50;99.90;;;;;;5034122;28;20418;-84
2021/03/30 02:48:08;;;;;;;3.80;3.00;;;9.50;99.90;;;;;;5034179;28;20490;-84
2021/03/30 02:50:38;;;;;;;3.30;3.10;;;9.50;99.90;;;;;;5032862;28;20923;-84
2021/03/30 02:53:04;;;;;;;2.73;2.53;;;9.40;99.90;;;;;;5033562;28;20860;-85
2021/03/30 02:55:33;;;;;;;3.40;3.10;;;9.30;99.90;;;;;;5033786;28;20541;-84
2021/03/30 02:58:00;;;;;;;2.97;2.70;;;9.10;99.90;;;;;;5032677;28;20189;-83
2021/03/30 03:00:26;;;;;;;3.87;2.53;;;9.20;99.90;;;;;;5032392;28;20427;-84
2021/03/30 03:02:54;;;;;;;3.80;2.73;;;9.20;99.90;;;;;;5032274;28;20427;-84
2021/03/30 03:05:20;;;;;;;2.67;2.20;;;9.30;99.90;;;;;;5031870;28;20905;-84
2021/03/30 03:07:48;;;;;;;3.00;2.80;;;9.40;99.90;;;;;;5032425;28;20522;-84
2021/03/30 03:10:14;;;;;;;2.77;2.50;;;9.40;99.90;;;;;;5031775;28;20300;-84
2021/03/30 03:12:42;;;;;;;3.40;2.70;;;9.30;99.90;;;;;;5032455;28;20573;-84
2021/03/30 03:15:11;;;;;;;3.40;3.10;;;9.20;99.90;;;;;;5032389;28;20173;-84
2021/03/30 03:17:37;;;;;;;5.03;3.57;;;9.30;99.90;;;;;;5032113;28;20442;-84
2021/03/30 03:20:08;;;;;;;3.70;3.03;;;9.20;99.90;;;;;;5032774;28;20422;-84
2021/03/30 03:22:34;;;;;;;2.70;2.50;;;9.30;99.90;;;;;;5032010;28;20439;-84
2021/03/30 03:25:00;;;;;;;2.47;2.27;;;9.40;99.90;;;;;;5033393;28;20407;-84
2021/03/30 03:27:28;;;;;;;4.03;3.63;;;9.50;99.90;;;;;;5048531;28;20462;-83
2021/03/30 03:29:54;;;;;;;2.93;2.43;;;9.50;99.90;;;;;;5033364;28;20426;-83
2021/03/30 03:32:25;;;;;;;2.03;1.93;;;9.50;99.90;;;;;;5033263;28;20420;-84
2021/03/30 03:34:51;;;;;;;2.80;2.43;;;9.50;99.90;;;;;;5031853;28;20419;-83
2021/03/30 03:37:17;;;;;;;3.90;3.60;;;9.50;99.90;;;;;;5032361;28;20540;-84
2021/03/30 03:39:42;;;;;;;9.70;3.00;;;9.40;99.90;;;;;;5033289;28;20238;-85
2021/03/30 03:42:08;;;;;;;2.40;2.20;;;9.40;99.90;;;;;;5031754;28;20188;-83
2021/03/30 03:44:33;;;;;;;3.83;3.20;;;9.50;99.90;;;;;;5033708;28;20177;-84
2021/03/30 03:46:59;;;;;;;5.50;2.83;;;9.50;99.90;;;;;;5034090;28;20208;-84
2021/03/30 03:49:26;;;;;;;2.77;2.57;;;9.50;99.90;;;;;;5031705;28;20591;-84
2021/03/30 03:52:04;;;;;;;4.73;3.40;;;9.50;99.90;;;;;;5032933;28;20179;-82
2021/03/30 03:54:31;;;;;;;4.07;3.77;;;9.50;99.90;;;;;;5031465;28;20429;-84
2021/03/30 03:57:06;;;;;;;4.50;4.17;;;9.50;99.90;;;;;;5031056;28;20477;-84
2021/03/30 03:59:34;;;;;;;3.70;3.40;;;9.40;99.90;;;;;;5031453;28;20419;-84
2021/03/30 04:02:21;;;;;;;5.53;4.13;;;9.30;99.90;;;;;;5032680;28;20438;-83
2021/03/30 04:04:50;;;;;;;3.63;3.40;;;9.30;99.90;;;;;;5032709;28;20416;-84
2021/03/30 04:07:21;;;;;;;5.30;3.03;;;9.00;99.90;;;;;;5031703;28;20431;-84
2021/03/30 04:09:50;;;;;;;3.83;3.07;;;8.80;99.90;;;;;;5032899;28;20477;-84
2021/03/30 04:12:18;;;;;;;7.20;6.13;;;8.70;99.90;;;;;;5030873;28;20915;-83
2021/03/30 04:14:44;;;;;;;8.30;3.40;;;8.80;99.90;;;;;;5031141;28;20779;-79
2021/03/30 04:17:14;;;;;;;4.67;4.17;;;8.90;99.90;;;;;;5033585;28;20467;-83
2021/03/30 04:19:40;;;;;;;3.33;3.03;;;8.80;1.00;;;;;;5032603;28;20169;-83
2021/03/30 04:22:06;;;;;;;3.50;3.20;;;8.60;1.00;;;;;;5031806;28;20424;-83
2021/03/30 04:24:32;;;;;;;4.90;3.80;;;8.70;1.00;;;;;;5032256;28;20168;-84
2021/03/30 04:26:57;;;;;;;9.33;2.90;;;8.80;99.90;;;;;;5031270;28;20423;-85
2021/03/30 04:29:23;;;;;;;2.97;2.63;;;9.00;99.90;;;;;;5032612;28;20169;-83
2021/03/30 04:31:48;;;;;;;4.30;3.40;;;9.10;99.90;;;;;;5032695;28;20185;-84
2021/03/30 04:34:14;;;;;;;5.83;3.50;;;9.10;99.90;;;;;;5048630;28;20184;-84
2021/03/30 04:36:40;;;;;;;6.70;3.27;;;9.10;99.90;;;;;;5032744;28;20227;-84
2021/03/30 04:39:05;;;;;;;3.33;2.80;;;9.10;99.90;;;;;;5031041;28;20181;-84
2021/03/30 04:41:31;;;;;;;2.67;2.47;;;9.10;99.90;;;;;;5031181;28;20188;-84
2021/03/30 04:43:56;;;;;;;2.77;2.57;;;8.90;99.90;;;;;;5030796;28;20180;-84
2021/03/30 04:46:22;;;;;;;4.10;3.30;;;8.70;99.90;;;;;;5030584;28;20238;-83
2021/03/30 04:48:48;;;;;;;4.43;3.40;;;8.60;1.00;;;;;;5031267;28;20223;-84
2021/03/30 04:51:13;;;;;;;7.33;5.33;;;8.50;1.00;;;;;;5031847;28;20227;-84
2021/03/30 04:53:39;;;;;;;10.70;4.10;;;8.60;1.00;;;;;;5031370;28;20644;-85
2021/03/30 04:56:05;;;;;;;3.77;2.80;;;8.80;99.90;;;;;;5034679;28;20216;-81
2021/03/30 04:58:31;;;;;;;3.67;3.30;;;9.00;99.90;;;;;;5032391;28;20283;-85
2021/03/30 05:00:57;;;;;;;3.60;2.73;;;9.00;99.90;;;;;;5031946;28;20467;-84
2021/03/30 05:03:22;;;;;;;4.23;2.53;;;8.80;99.90;;;;;;5033418;28;20184;-84
2021/03/30 05:05:48;;;;;;;2.63;2.43;;;8.80;99.90;;;;;;5033049;28;20175;-84
2021/03/30 05:08:14;;;;;;;5.80;4.20;;;8.70;99.90;;;;;;5035802;28;20196;-81
2021/03/30 05:10:39;;;;;;;6.27;3.60;;;8.60;1.00;;;;;;5036163;28;20199;-84
2021/03/30 05:13:05;;;;;;;5.37;3.23;;;8.60;1.00;;;;;;5035857;28;20176;-84
2021/03/30 05:15:31;;;;;;;3.00;2.80;;;8.60;1.00;;;;;;5035452;28;20173;-85
2021/03/30 05:17:56;;;;;;;3.83;3.10;;;8.70;99.90;;;;;;5035760;28;20177;-84
2021/03/30 05:20:22;;;;;;;5.93;2.90;;;8.90;99.90;;;;;;5036861;28;20164;-84
2021/03/30 05:22:47;;;;;;;7.70;3.43;;;8.90;99.90;;;;;;5035852;28;20251;-83
2021/03/30 05:25:14;;;;;;;3.27;2.97;;;9.00;99.90;;;;;;5034234;28;20168;-83
2021/03/30 05:27:39;;;;;;;2.67;2.47;;;8.90;99.90;;;;;;5035507;28;20527;-81
2021/03/30 05:30:12;;;;;;;3.30;3.10;;;9.00;99.90;;;;;;5033806;28;20426;-84
2021/03/30 05:32:37;;;;;;;3.43;3.13;;;9.10;99.90;;;;;;5017921;28;20250;-83
2021/03/30 05:35:09;;;;;;;4.57;2.87;;;9.10;99.90;;;;;;5035607;28;20502;-85
2021/03/30 05:37:35;;;;;;;15.13;4.17;;;9.10;99.90;;;;;;5033731;28;20921;-78
2021/03/30 05:40:00;;;;;;;7.20;3.00;;;9.30;99.90;;;;;;5035071;28;20407;-83
2021/03/30 05:42:26;;;;;;;5.90;4.27;;;9.40;99.90;;;;;;5035434;28;20283;-83
2021/03/30 05:44:52;;;;;;;14.47;4.47;;;9.40;99.90;;;;;;5036504;28;20168;-83
2021/03/30 05:47:22;;;;;;;43.77;9.53;;;9.50;99.90;;;;;;5034526;28;20548;-86
2021/03/30 05:49:49;;;;;;;4.37;3.90;;;9.60;99.90;;;;;;5033531;28;20427;-83
2021/03/30 05:52:30;;;;;;;18.03;5.83;;;9.50;99.90;;;;;;5035266;28;20744;-84
2021/03/30 05:54:57;;;;;;;3.93;3.57;;;9.50;99.90;;;;;;5033663;28;20485;-84
2021/03/30 05:57:28;;;;;;;22.57;7.17;;;9.50;99.90;;;;;;5035111;28;20490;-85
2021/03/30 05:59:59;;;;;;;4.70;3.23;;;10.00;99.90;;;;;;5035675;28;20922;-83
2021/03/30 06:02:45;;;;;;;7.20;4.07;;;10.80;99.90;;;;;;5028511;28;20435;-83
2021/03/30 06:05:16;;;;;;;8.23;3.53;;;11.80;99.90;;;;;;5033576;28;20737;-84
2021/03/30 06:07:43;;;;;;;3.83;3.43;;;12.00;99.90;;;;;;5033821;28;20462;-84
2021/03/30 06:10:12;;;;;;;3.70;3.40;;;12.50;99.90;;;;;;5048623;28;20474;-84
2021/03/30 06:12:37;;;;;;;6.43;3.70;;;12.80;99.90;;;;;;5033757;28;20415;-85
2021/03/30 06:15:05;;;;;;;5.27;4.50;;;12.90;99.90;;;;;;5032453;28;20419;-84
2021/03/30 06:17:47;;;;;;;4.30;3.47;;;13.30;99.90;;;;;;5029749;28;20284;-85
2021/03/30 06:20:34;;;;;;;8.83;3.80;;;13.80;99.90;;;;;;5048653;28;20426;-84
2021/03/30 06:23:03;;;;;;;4.27;2.93;;;14.00;99.90;;;;;;5032480;28;20427;-84
2021/03/30 06:25:43;;;;;;;7.27;4.10;;;14.20;99.90;;;;;;5033274;28;20415;-84
2021/03/30 06:28:12;;;;;;;17.10;5.40;;;14.60;99.90;;;;;;5047587;28;20431;-84
2021/03/30 06:30:56;;;;;;;14.40;4.97;;;14.90;99.90;;;;;;5045373;28;22878;-83
2021/03/30 06:33:23;;;;;;;37.63;7.77;;;15.10;99.90;;;;;;5042008;28;20901;-80
2021/03/30 06:35:49;;;;;;;9.60;4.23;;;14.90;99.90;;;;;;5029217;28;20983;-85
2021/03/30 06:38:15;;;;;;;18.30;5.17;;;14.90;99.90;;;;;;5029699;28;20439;-83
2021/03/30 06:40:43;;;;;;;7.67;3.80;;;15.60;99.90;;;;;;5030772;28;20184;-84
2021/03/30 06:46:11;;;;;;;6.50;5.17;;;15.60;99.90;;;;;;5013122;28;20563;-85
2021/03/30 06:48:40;;;;;;;6.90;4.90;;;16.10;99.90;;;;;;5012535;28;20428;-84
2021/03/30 06:51:22;;;;;;;4.43;4.03;;;16.30;99.90;;;;;;5011491;28;20839;-84
2021/03/30 06:53:48;;;;;;;16.60;8.90;;;16.40;99.90;;;;;;5015780;28;20428;-85
2021/03/30 06:56:13;;;;;;;8.40;4.50;;;16.50;99.90;;;;;;5015602;28;20504;-84
2021/03/30 06:58:59;;;;;;;7.40;4.57;;;16.60;99.90;;;;;;5030904;28;20192;-84
2021/03/30 07:01:26;;;;;;;46.17;8.13;;;17.00;99.90;;;;;;5032150;28;20176;-82
2021/03/30 07:03:56;;;;;;;11.33;5.83;;;17.00;99.90;;;;;;5047584;28;20493;-81
2021/03/30 07:06:24;;;;;;;12.30;4.90;;;17.30;99.90;;;;;;5047036;28;20450;-81
2021/03/30 07:08:49;;;;;;;29.23;6.53;;;17.60;99.90;;;;;;5031734;28;20460;-83
2021/03/30 07:11:17;;;;;;;42.47;9.23;;;18.20;99.90;;;;;;5049416;28;20427;-82
2021/03/30 07:13:42;;;;;;;15.87;8.03;;;18.50;99.90;;;;;;5031704;28;20318;-83
2021/03/30 07:16:30;;;;;;;67.37;13.73;;;18.50;99.90;;;;;;5032002;28;20549;-83
2021/03/30 07:18:59;;;;;;;10.40;5.07;;;18.60;99.90;;;;;;5045759;28;20200;-84
2021/03/30 07:21:34;;;;;;;11.20;4.23;;;18.80;99.90;;;;;;5031821;28;20945;-83
2021/03/30 07:24:05;;;;;;;35.83;7.37;;;19.20;99.90;;;;;;5047160;28;20541;-78
2021/03/30 07:26:59;;;;;;;21.10;6.77;;;19.50;99.90;;;;;;5031418;28;20415;-84
2021/03/30 07:29:30;;;;;;;20.10;6.17;;;19.80;99.90;;;;;;5046314;28;20438;-83
2021/03/30 07:32:23;;;;;;;14.33;6.30;;;20.00;99.90;;;;;;5046874;28;20423;-83
2021/03/30 07:35:06;;;;;;;17.13;5.87;;;19.90;99.90;;;;;;5031167;28;20443;-82
2021/03/30 07:37:39;;;;;;;13.60;5.70;;;19.80;99.90;;;;;;5047009;28;20524;-84
2021/03/30 07:40:07;;;;;;;16.53;5.27;;;20.20;99.90;;;;;;5030064;28;20514;-85
2021/03/30 07:42:33;;;;;;;12.03;5.40;;;20.20;99.90;;;;;;5030650;28;20931;-85
2021/03/30 07:44:59;;;;;;;16.50;5.50;;;20.60;99.90;;;;;;5031425;28;20423;-84
2021/03/30 07:47:26;;;;;;;16.27;6.30;;;20.60;99.90;;;;;;5047306;28;20434;-83
2021/03/30 07:49:53;;;;;;;27.13;6.30;;;20.70;99.90;;;;;;5047825;28;21005;-86
2021/03/30 07:52:20;;;;;;;19.50;6.20;;;20.80;99.90;;;;;;5031267;28;20427;-83
2021/03/30 07:55:17;;;;;;;20.13;7.30;;;21.90;99.90;;;;;;5047509;28;20434;-83
2021/03/30 07:58:11;;;;;;;12.00;5.93;;;21.50;99.90;;;;;;5030911;28;20548;-83
2021/03/30 08:00:45;;;;;;;9.40;4.37;;;21.60;99.90;;;;;;5047872;28;20415;-84
2021/03/30 08:03:21;;;;;;;15.90;6.20;;;21.50;99.90;;;;;;5050686;28;20420;-83
2021/03/30 08:06:06;;;;;;;11.93;6.97;;;21.90;99.90;;;;;;5047985;28;20468;-84
2021/03/30 08:08:46;;;;;;;9.07;7.13;;;22.30;99.90;;;;;;5031942;28;20415;-83
2021/03/30 08:11:12;;;;;;;10.40;5.13;;;22.40;99.90;;;;;;5031143;28;20445;-84
2021/03/30 08:13:53;;;;;;;9.57;4.80;;;22.50;99.90;;;;;;5032760;28;20424;-84
2021/03/30 08:16:20;;;;;;;7.27;4.70;;;22.80;99.90;;;;;;5047626;28;20278;-84
2021/03/30 08:18:47;;;;;;;5.63;4.37;;;23.00;99.90;;;;;;5046688;28;20415;-84
2021/03/30 08:21:18;;;;;;;6.63;5.73;;;23.00;99.90;;;;;;5048396;28;20517;-84
2021/03/30 08:23:53;;;;;;;11.53;5.40;;;23.40;99.90;;;;;;5030672;28;20423;-80
2021/03/30 08:26:46;;;;;;;25.67;6.20;;;23.00;99.90;;;;;;5031563;28;20431;-84
2021/03/30 08:29:13;;;;;;;29.53;7.63;;;22.70;99.90;;;;;;5031861;28;20431;-85
2021/03/30 08:31:47;;;;;;;17.63;6.77;;;23.00;99.90;;;;;;5031659;28;20427;-85
2021/03/30 08:34:26;;;;;;;40.07;9.43;;;23.00;99.90;;;;;;5033581;28;20427;-84
2021/03/30 08:36:58;;;;;;;25.20;8.07;;;23.00;99.90;;;;;;5030337;28;20481;-84
2021/03/30 08:39:24;;;;;;;41.93;9.37;;;23.50;99.90;;;;;;5032155;28;20408;-83
2021/03/30 08:41:54;;;;;;;22.97;6.57;;;24.50;99.90;;;;;;5050368;28;20949;-84
2021/03/30 08:44:38;;;;;;;16.90;8.13;;;24.20;99.90;;;;;;5050966;28;20295;-83
2021/03/30 08:47:05;;;;;;;21.03;7.77;;;24.30;99.90;;;;;;5051325;28;21250;-84
2021/03/30 08:49:41;;;;;;;19.70;6.50;;;24.60;99.90;;;;;;5033782;28;20472;-83
2021/03/30 08:52:06;;;;;;;10.60;5.83;;;25.20;99.90;;;;;;5035710;28;20415;-83
2021/03/30 08:57:12;;;;;;;9.53;5.67;;;25.50;99.90;;;;;;5034256;28;20234;-85
2021/03/30 08:59:39;;;;;;;7.73;6.10;;;24.80;99.90;;;;;;5033033;28;20427;-84
2021/03/30 09:02:11;;;;;;;8.37;5.97;;;25.10;99.90;;;;;;5036190;28;20193;-84
2021/03/30 09:04:44;;;;;;;10.90;6.30;;;25.20;99.90;;;;;;5037812;28;20472;-84
2021/03/30 09:07:11;;;;;;;8.57;7.77;;;25.60;99.90;;;;;;5035822;28;20949;-84
2021/03/30 09:09:38;;;;;;;12.30;7.20;;;25.10;99.90;;;;;;5035330;28;20459;-84
2021/03/30 09:12:07;;;;;;;10.97;6.87;;;25.80;99.90;;;;;;5035179;28;20771;-81
2021/03/30 09:14:33;;;;;;;8.07;6.40;;;26.40;99.90;;;;;;5050511;28;20446;-85
2021/03/30 09:17:09;;;;;;;10.70;5.90;;;26.40;99.90;;;;;;5035469;28;20494;-83
2021/03/30 09:19:40;;;;;;;7.30;6.60;;;26.50;99.90;;;;;;5034180;28;20423;-84
2021/03/30 09:22:10;;;;;;;7.53;5.60;;;26.20;99.90;;;;;;5037940;28;20447;-85
2021/03/30 09:24:44;;;;;;;8.43;6.47;;;26.00;99.90;;;;;;5035622;28;20822;-85
2021/03/30 09:27:11;;;;;;;7.93;6.87;;;26.10;99.90;;;;;;5035492;28;20810;-84
2021/03/30 09:29:36;;;;;;;10.20;7.07;;;25.80;99.90;;;;;;5035089;28;20469;-85
2021/03/30 09:32:07;;;;;;;8.77;6.90;;;26.30;99.90;;;;;;5034264;28;20416;-85
2021/03/30 09:34:36;;;;;;;7.10;6.43;;;26.00;99.90;;;;;;5033535;28;20583;-79
2021/03/30 09:37:02;;;;;;;7.53;6.43;;;26.10;99.90;;;;;;5034609;28;20490;-85
2021/03/30 09:39:28;;;;;;;10.97;6.70;;;26.20;99.90;;;;;;5033489;28;20427;-85
2021/03/30 09:41:55;;;;;;;9.80;7.63;;;26.70;99.90;;;;;;5035507;28;20180;-85
2021/03/30 09:44:22;;;;;;;15.77;8.23;;;26.20;99.90;;;;;;5033668;28;20238;-85
2021/03/30 09:46:51;;;;;;;8.10;6.90;;;26.60;99.90;;;;;;5033778;28;20458;-85
2021/03/30 09:49:21;;;;;;;14.53;8.17;;;26.00;99.90;;;;;;5034699;28;20415;-85
2021/03/30 09:51:47;;;;;;;9.50;8.50;;;26.00;99.90;;;;;;5032467;28;20423;-83
2021/03/30 09:54:26;;;;;;;9.47;8.57;;;26.20;99.90;;;;;;5033634;28;20419;-84
2021/03/30 09:57:02;;;;;;;9.03;8.10;;;26.50;99.90;;;;;;5034445;28;20474;-84
2021/03/30 09:59:28;;;;;;;8.70;7.83;;;25.70;99.90;;;;;;5035105;28;20498;-85
2021/03/30 10:01:55;;;;;;;9.97;9.10;;;26.20;99.90;;;;;;5033450;28;20435;-84
2021/03/30 10:04:23;;;;;;;10.07;9.17;;;26.40;99.90;;;;;;5034159;28;20426;-83
2021/03/30 10:06:49;;;;;;;12.17;8.17;;;26.80;99.90;;;;;;5033268;28;20435;-85
2021/03/30 10:09:15;;;;;;;9.10;8.40;;;26.70;99.90;;;;;;5032559;28;20966;-84
2021/03/30 10:11:40;;;;;;;7.87;7.10;;;25.90;99.90;;;;;;5031966;28;20188;-85
2021/03/30 10:14:26;;;;;;;8.33;7.53;;;25.30;99.90;;;;;;5035745;28;20267;-84
2021/03/30 10:16:58;;;;;;;20.40;9.23;;;24.80;99.90;;;;;;5029244;28;20212;-84
2021/03/30 10:19:25;;;;;;;9.30;7.67;;;24.90;99.90;;;;;;5031525;28;20448;-84
2021/03/30 10:21:55;;;;;;;8.23;7.03;;;24.80;99.90;;;;;;5040907;28;20435;-83
2021/03/30 10:24:21;;;;;;;7.30;6.70;;;25.50;99.90;;;;;;5048327;28;20434;-85
2021/03/30 10:27:10;;;;;;;9.27;7.17;;;26.10;99.90;;;;;;5033836;28;20949;-84
2021/03/30 10:29:41;;;;;;;7.60;7.00;;;26.70;99.90;;;;;;5032465;28;20427;-85
2021/03/30 10:32:18;;;;;;;7.70;7.00;;;26.80;99.90;;;;;;5044823;28;20420;-84
2021/03/30 10:34:44;;;;;;;11.13;7.57;;;27.20;99.90;;;;;;5014131;28;20469;-81
2021/03/30 10:37:12;;;;;;;7.13;6.43;;;27.30;99.90;;;;;;5013571;28;20558;-84
2021/03/30 10:39:42;;;;;;;8.03;5.93;;;27.50;99.90;;;;;;5012420;28;20455;-86
2021/03/30 10:42:16;;;;;;;9.20;8.27;;;28.20;99.90;;;;;;5012571;28;20915;-85
2021/03/30 10:44:44;;;;;;;7.73;7.13;;;28.20;99.90;;;;;;5013206;28;20444;-85
2021/03/30 10:47:22;;;;;;;9.00;8.30;;;28.10;99.90;;;;;;5012921;28;20413;-84
2021/03/30 10:49:50;;;;;;;7.70;7.10;;;28.60;99.90;;;;;;5014167;28;20423;-82
2021/03/30 10:52:22;;;;;;;9.30;7.90;;;29.00;99.90;;;;;;5015014;28;20408;-85
2021/03/30 10:54:50;;;;;;;9.30;8.60;;;28.40;99.90;;;;;;5017050;28;20419;-84
2021/03/30 10:57:17;;;;;;;8.90;8.10;;;27.80;99.90;;;;;;5031976;28;20946;-83
2021/03/30 10:59:44;;;;;;;8.70;7.83;;;28.00;99.90;;;;;;5032020;28;20423;-83
2021/03/30 11:02:11;;;;;;;11.17;7.97;;;28.00;99.90;;;;;;5047570;28;20439;-85
2021/03/30 11:04:38;;;;;;;9.63;8.03;;;27.60;99.90;;;;;;5047412;28;20966;-85
2021/03/30 11:07:05;;;;;;;8.90;8.20;;;27.90;99.90;;;;;;5032121;28;20415;-84
2021/03/30 11:09:32;;;;;;;8.87;8.17;;;27.80;99.90;;;;;;5031087;28;20463;-84
2021/03/30 11:11:58;;;;;;;9.07;8.27;;;27.30;99.90;;;;;;5031349;28;20451;-84
2021/03/30 11:14:24;;;;;;;9.30;8.13;;;27.20;99.90;;;;;;5032381;28;20443;-84
2021/03/30 11:16:50;;;;;;;15.47;8.70;;;26.90;99.90;;;;;;5031818;28;20212;-84
2021/03/30 11:19:16;;;;;;;8.63;7.83;;;27.30;99.90;;;;;;5040196;28;20172;-84
2021/03/30 11:21:42;;;;;;;16.97;9.47;;;27.20;99.90;;;;;;5066903;28;20184;-84
2021/03/30 11:24:12;;;;;;;7.30;6.60;;;26.60;99.90;;;;;;5052044;28;20421;-86
2021/03/30 11:26:39;;;;;;;9.67;8.03;;;27.10;99.90;;;;;;5051793;28;20175;-84
2021/03/30 11:29:05;;;;;;;8.53;7.63;;;27.60;99.90;;;;;;5067181;28;20789;-85
2021/03/30 11:34:16;;;;;;;9.67;7.50;;;27.50;99.90;;;;;;5032235;28;20222;-83
2021/03/30 11:36:43;;;;;;;8.83;7.93;;;27.10;99.90;;;;;;5032053;28;20553;-81
2021/03/30 11:39:08;;;;;;;9.73;8.73;;;25.80;99.90;;;;;;5029867;28;20476;-84
2021/03/30 11:41:34;;;;;;;10.33;9.50;;;24.90;99.90;;;;;;5031553;28;20431;-84
2021/03/30 11:44:00;;;;;;;8.70;7.90;;;24.60;99.90;;;;;;5031956;28;20172;-84
2021/03/30 11:46:25;;;;;;;7.93;7.23;;;24.90;99.90;;;;;;5028887;28;20172;-84
2021/03/30 11:48:51;;;;;;;7.57;6.87;;;24.60;99.90;;;;;;5030160;28;20184;-84
2021/03/30 11:51:16;;;;;;;8.47;7.37;;;24.40;99.90;;;;;;5031366;28;20207;-84
2021/03/30 11:53:44;;;;;;;6.13;5.50;;;24.40;99.90;;;;;;5030347;28;20536;-84
2021/03/30 11:56:11;;;;;;;5.93;5.40;;;24.40;99.90;;;;;;5030952;28;20608;-84
2021/03/30 11:58:37;;;;;;;7.63;6.93;;;24.70;99.90;;;;;;5030291;28;20491;-83
2021/03/30 12:01:03;;;;;;;9.83;6.97;;;24.30;99.90;;;;;;5032084;28;20433;-84
2021/03/30 12:03:29;;;;;;;8.63;6.47;;;24.00;99.90;;;;;;5032031;28;20450;-81
2021/03/30 12:05:54;;;;;;;6.67;6.17;;;23.80;99.90;;;;;;5046398;28;20447;-84
2021/03/30 12:08:20;;;;;;;8.43;7.57;;;24.00;99.90;;;;;;5029951;28;20176;-85
2021/03/30 12:10:45;;;;;;;9.73;7.20;;;24.20;99.90;;;;;;5034043;28;20172;-84
2021/03/30 12:13:11;;;;;;;10.30;7.53;;;24.20;99.90;;;;;;5030023;28;20637;-84
2021/03/30 12:15:37;;;;;;;7.50;6.80;;;24.20;99.90;;;;;;5045707;28;20180;-84
2021/03/30 12:18:02;;;;;;;7.10;6.50;;;24.40;99.90;;;;;;5012256;28;20198;-82
2021/03/30 12:20:28;;;;;;;7.57;5.60;;;24.40;99.90;;;;;;5024432;28;20176;-83
2021/03/30 12:22:55;;;;;;;9.57;6.40;;;24.10;99.90;;;;;;5028697;28;20196;-84
2021/03/30 12:25:20;;;;;;;9.73;5.97;;;24.20;99.90;;;;;;5032426;28;20180;-84
2021/03/30 12:27:46;;;;;;;11.73;6.70;;;24.10;99.90;;;;;;5031285;28;20431;-82
2021/03/30 12:30:12;;;;;;;13.30;6.20;;;24.10;99.90;;;;;;5029696;28;20587;-85
2021/03/30 12:32:38;;;;;;;19.60;6.70;;;23.90;99.90;;;;;;5029692;28;20263;-83
2021/03/30 12:35:05;;;;;;;9.10;6.13;;;23.90;99.90;;;;;;5029807;28;20438;-83
2021/03/30 12:37:30;;;;;;;8.17;5.40;;;23.90;99.90;;;;;;5030705;28;20474;-83
2021/03/30 12:39:56;;;;;;;7.33;4.50;;;24.20;99.90;;;;;;5031050;28;20456;-85
2021/03/30 12:42:22;;;;;;;6.00;4.90;;;24.30;99.90;;;;;;5030041;28;20176;-77
2021/03/30 12:44:47;;;;;;;7.30;5.70;;;24.00;99.90;;;;;;5028050;28;20282;-83
2021/03/30 12:47:13;;;;;;;6.57;5.00;;;23.90;99.90;;;;;;5029836;28;20549;-85
2021/03/30 12:49:39;;;;;;;5.40;5.00;;;23.90;99.90;;;;;;5046358;28;20683;-83
2021/03/30 12:52:04;;;;;;;7.53;5.03;;;23.90;99.90;;;;;;5030888;28;20267;-83
2021/03/30 12:54:30;;;;;;;5.70;5.07;;;23.60;99.90;;;;;;5030280;28;20177;-86
2021/03/30 12:56:56;;;;;;;5.90;5.27;;;23.70;99.90;;;;;;5030978;28;20319;-84
2021/03/30 12:59:21;;;;;;;6.63;4.83;;;23.70;99.90;;;;;;5029994;28;20540;-85
2021/03/30 13:01:47;;;;;;;5.20;4.43;;;23.80;99.90;;;;;;5029784;28;20176;-83
2021/03/30 13:04:13;;;;;;;6.53;4.73;;;23.50;99.90;;;;;;5031126;28;20293;-85
2021/03/30 13:06:39;;;;;;;5.90;5.30;;;23.70;99.90;;;;;;5030505;28;20423;-84